createdAt,value
2022-08-14T00:02:24.443Z,64.08
2022-08-14T00:04:55.124Z,64.02
2022-08-14T00:07:23.503Z,65.22
2022-08-14T00:10:01.172Z,65.08
2022-08-14T00:12:47.966Z,64.84
2022-08-14T00:15:24.687Z,64.92
2022-08-14T00:17:53.791Z,65.00
2022-08-14T00:20:30.246Z,66.59
2022-08-14T00:23:08.219Z,65.48
2022-08-14T00:25:58.662Z,64.56
2022-08-14T00:28:35.883Z,65.24
2022-08-14T00:31:07.745Z,64.87
2022-08-14T00:33:50.544Z,64.41
2022-08-14T00:36:39.174Z,64.40
2022-08-14T00:39:09.865Z,64.38
2022-08-14T00:41:39.469Z,64.97
2022-08-14T00:44:10.882Z,64.97
2022-08-14T00:46:39.011Z,67.51
2022-08-14T00:49:08.221Z,65.54
2022-08-14T00:51:41.007Z,64.58
2022-08-14T00:54:11.069Z,64.60
2022-08-14T00:56:55.108Z,64.69
2022-08-14T00:59:24.607Z,64.73
2022-08-14T01:01:53.035Z,65.14
2022-08-14T01:04:51.577Z,65.55
2022-08-14T01:07:11.799Z,65.44
2022-08-14T01:09:42.652Z,65.89
2022-08-14T01:12:13.478Z,66.45
2022-08-14T01:14:55.887Z,66.46
2022-08-14T01:17:49.831Z,66.25
2022-08-14T01:20:39.674Z,68.15
2022-08-14T01:23:15.633Z,66.79
2022-08-14T01:25:46.104Z,69.19
2022-08-14T01:28:46.730Z,66.14
2022-08-14T01:31:06.033Z,66.12
2022-08-14T01:34:00.109Z,67.15
2022-08-14T01:36:23.875Z,67.18
2022-08-14T01:38:58.444Z,66.99
2022-08-14T01:41:29.943Z,67.02
2022-08-14T01:44:02.211Z,66.76
2022-08-14T01:46:36.882Z,67.63
2022-08-14T01:49:07.559Z,67.73
2022-08-14T01:51:36.461Z,68.24
2022-08-14T01:54:09.589Z,68.93
2022-08-14T01:56:39.989Z,68.01
2022-08-14T01:59:09.621Z,68.51
2022-08-14T02:01:41.771Z,69.09
2022-08-14T02:04:40.703Z,67.79
2022-08-14T02:06:59.137Z,68.98
2022-08-14T02:09:28.522Z,70.80
2022-08-14T02:12:00.003Z,72.23
2022-08-14T02:14:32.121Z,75.95
2022-08-14T02:17:01.588Z,72.99
2022-08-14T02:19:32.396Z,70.32
2022-08-14T02:22:03.355Z,71.50
2022-08-14T02:24:39.044Z,71.27
2022-08-14T02:28:22.670Z,73.77
2022-08-14T02:30:00.684Z,75.18
2022-08-14T02:32:30.538Z,70.67
2022-08-14T02:35:10.457Z,70.16
2022-08-14T02:37:48.175Z,75.01
2022-08-14T02:40:19.139Z,70.63
2022-08-14T02:42:54.861Z,70.29
2022-08-14T02:45:33.525Z,69.61
2022-08-14T02:49:01.842Z,69.85
2022-08-14T02:51:01.029Z,69.51
2022-08-14T02:53:29.572Z,69.85
2022-08-14T02:56:02.496Z,70.17
2022-08-14T02:58:32.253Z,70.32
2022-08-14T03:01:01.240Z,70.23
2022-08-14T03:03:31.521Z,70.21
2022-08-14T03:06:01.014Z,69.18
2022-08-14T03:08:31.796Z,69.38
2022-08-14T03:11:02.611Z,69.09
2022-08-14T03:13:35.680Z,69.46
2022-08-14T03:16:09.018Z,69.74
2022-08-14T03:18:52.601Z,70.47
2022-08-14T03:21:22.871Z,70.58
2022-08-14T03:23:56.974Z,70.87
2022-08-14T03:26:30.117Z,70.12
2022-08-14T03:29:00.989Z,69.70
2022-08-14T03:31:30.510Z,70.96
2022-08-14T03:34:00.078Z,70.60
2022-08-14T03:37:38.907Z,71.23
2022-08-14T03:39:22.645Z,71.06
2022-08-14T03:41:55.102Z,71.78
2022-08-14T03:45:26.134Z,72.07
2022-08-14T03:47:15.506Z,74.00
2022-08-14T03:49:43.973Z,73.01
2022-08-14T03:52:38.284Z,72.72
2022-08-14T03:55:03.769Z,72.65
2022-08-14T03:57:37.224Z,73.25
2022-08-14T04:00:13.825Z,73.18
2022-08-14T04:02:58.885Z,72.79
2022-08-14T04:05:27.105Z,73.01
2022-08-14T04:08:08.459Z,73.70
2022-08-14T04:10:43.175Z,73.84
2022-08-14T04:13:18.395Z,73.46
2022-08-14T04:16:01.327Z,73.09
2022-08-14T04:18:32.335Z,73.58
2022-08-14T04:21:04.056Z,74.20
2022-08-14T04:23:33.762Z,74.46
2022-08-14T04:26:03.840Z,74.89
2022-08-14T04:29:06.787Z,75.28
2022-08-14T04:31:25.022Z,74.73
2022-08-14T04:34:20.925Z,75.34
2022-08-14T04:37:12.827Z,75.65
2022-08-14T04:39:58.699Z,75.63
2022-08-14T04:42:47.695Z,77.92
2022-08-14T04:45:23.706Z,80.60
2022-08-14T04:48:10.023Z,80.43
2022-08-14T04:50:44.534Z,81.83
2022-08-14T04:53:15.606Z,78.18
2022-08-14T04:55:46.004Z,77.74
2022-08-14T04:58:21.521Z,80.44
2022-08-14T05:00:52.687Z,76.67
2022-08-14T05:03:21.677Z,79.18
2022-08-14T05:05:54.663Z,76.75
2022-08-14T05:08:32.332Z,76.89
2022-08-14T05:11:13.424Z,76.80
2022-08-14T05:16:33.477Z,76.17
2022-08-14T05:19:24.683Z,77.00
2022-08-14T05:21:56.199Z,79.59
2022-08-14T05:24:26.636Z,77.45
2022-08-14T05:26:55.334Z,79.14
2022-08-14T05:29:23.623Z,82.56
2022-08-14T05:31:58.081Z,78.92
2022-08-14T05:34:31.487Z,78.96
2022-08-14T05:37:02.820Z,79.98
2022-08-14T05:39:31.703Z,85.22
2022-08-14T05:42:00.677Z,80.12
2022-08-14T05:44:30.767Z,88.50
2022-08-14T05:47:01.118Z,84.40
2022-08-14T05:49:33.272Z,80.71
2022-08-14T05:52:02.523Z,81.65
2022-08-14T05:54:35.389Z,80.48
2022-08-14T05:57:04.579Z,83.16
2022-08-14T05:59:39.043Z,80.37
2022-08-14T06:02:10.336Z,87.38
2022-08-14T06:04:38.882Z,80.78
2022-08-14T06:07:07.108Z,81.90
2022-08-14T06:09:40.847Z,89.31
2022-08-14T06:12:10.034Z,81.47
2022-08-14T06:14:38.711Z,80.16
2022-08-14T06:17:08.183Z,80.10
2022-08-14T06:19:37.656Z,77.53
2022-08-14T06:22:06.183Z,77.06
2022-08-14T06:24:36.893Z,80.73
2022-08-14T06:27:12.112Z,76.54
2022-08-14T06:29:40.538Z,76.30
2022-08-14T06:32:52.419Z,75.71
2022-08-14T06:35:09.214Z,75.54
2022-08-14T06:37:46.833Z,75.03
2022-08-14T06:40:27.345Z,78.55
2022-08-14T06:43:00.328Z,78.77
2022-08-14T06:45:32.108Z,76.21
2022-08-14T06:48:02.452Z,75.77
2022-08-14T06:50:35.593Z,78.21
2022-08-14T06:53:03.827Z,78.14
2022-08-14T06:55:57.918Z,75.71
2022-08-14T06:58:29.224Z,74.27
2022-08-14T07:01:19.399Z,75.77
2022-08-14T07:04:12.857Z,88.10
2022-08-14T07:07:00.501Z,75.98
2022-08-14T07:09:50.718Z,79.44
2022-08-14T07:12:52.231Z,77.40
2022-08-14T07:15:13.592Z,84.06
2022-08-14T07:17:51.999Z,76.79
2022-08-14T07:20:30.596Z,72.97
2022-08-14T07:23:08.422Z,73.64
2022-08-14T07:25:38.387Z,73.28
2022-08-14T07:28:35.854Z,72.32
2022-08-14T07:31:12.875Z,77.20
2022-08-14T07:33:43.586Z,73.37
2022-08-14T07:39:02.795Z,72.49
2022-08-14T07:41:33.767Z,78.75
2022-08-14T07:44:32.778Z,72.97
2022-08-14T07:48:48.827Z,72.87
2022-08-14T07:50:52.579Z,74.06
2022-08-14T07:56:59.956Z,72.19
2022-08-14T07:59:53.877Z,74.55
2022-08-14T08:05:42.051Z,71.55
2022-08-14T08:14:56.427Z,72.22
2022-08-14T08:17:34.774Z,71.71
2022-08-14T08:20:11.682Z,71.29
2022-08-14T08:22:43.201Z,71.07
2022-08-14T08:25:13.771Z,71.02
2022-08-14T08:28:08.715Z,71.80
2022-08-14T08:31:03.999Z,70.29
2022-08-14T08:33:57.427Z,72.85
2022-08-14T08:36:25.732Z,73.81
2022-08-14T08:39:15.335Z,72.70
2022-08-14T08:42:13.585Z,70.86
2022-08-14T08:44:43.093Z,67.71
2022-08-14T08:47:13.426Z,66.79
2022-08-14T08:49:48.495Z,70.76
2022-08-14T08:52:30.881Z,72.37
2022-08-14T08:55:00.858Z,75.79
2022-08-14T08:57:36.059Z,74.32
2022-08-14T09:00:25.554Z,68.99
2022-08-14T09:03:13.480Z,67.12
2022-08-14T09:05:53.888Z,68.38
2022-08-14T09:08:32.838Z,68.18
2022-08-14T09:11:02.815Z,69.63
2022-08-14T09:13:48.651Z,69.60
2022-08-14T09:16:21.725Z,68.04
2022-08-14T09:19:32.986Z,65.70
2022-08-14T09:22:34.958Z,62.62
2022-08-14T09:24:55.377Z,62.51
2022-08-14T09:27:39.935Z,61.86
2022-08-14T09:30:33.623Z,61.62
2022-08-14T09:33:33.514Z,61.05
2022-08-14T09:36:38.946Z,63.32
2022-08-14T09:39:34.435Z,64.49
2022-08-14T09:42:32.715Z,60.06
2022-08-14T09:45:15.356Z,58.80
2022-08-14T09:47:52.307Z,57.09
2022-08-14T09:50:34.912Z,60.47
2022-08-14T09:53:17.838Z,65.63
2022-08-14T09:56:10.858Z,58.96
2022-08-14T09:58:55.921Z,58.72
2022-08-14T10:01:26.070Z,58.84
2022-08-14T10:04:01.419Z,57.04
2022-08-14T10:06:31.809Z,57.83
2022-08-14T10:09:17.079Z,55.65
2022-08-14T10:12:01.163Z,61.43
2022-08-14T10:14:37.152Z,58.87
2022-08-14T10:17:08.573Z,54.98
2022-08-14T10:19:37.311Z,55.36
2022-08-14T10:23:13.254Z,57.23
2022-08-14T10:25:16.640Z,54.84
2022-08-14T10:27:46.785Z,50.01
2022-08-14T10:30:22.216Z,48.87
2022-08-14T10:32:52.442Z,51.70
2022-08-14T10:35:23.012Z,50.80
2022-08-14T10:37:52.783Z,49.87
2022-08-14T10:40:43.462Z,50.06
2022-08-14T10:43:23.089Z,50.58
2022-08-14T10:47:37.206Z,50.87
2022-08-14T10:49:03.853Z,50.86
2022-08-14T10:51:39.828Z,49.28
2022-08-14T10:54:37.298Z,47.70
2022-08-14T10:57:23.990Z,49.45
2022-08-14T11:00:00.311Z,47.00
2022-08-14T11:02:50.294Z,46.45
2022-08-14T11:05:27.114Z,47.26
2022-08-14T11:08:00.434Z,46.50
2022-08-14T11:10:45.088Z,45.77
2022-08-14T11:13:24.024Z,49.80
2022-08-14T11:15:57.573Z,47.82
2022-08-14T11:18:32.528Z,46.85
2022-08-14T11:21:14.750Z,45.65
2022-08-14T11:23:53.724Z,45.70
2022-08-14T11:26:30.153Z,44.28
2022-08-14T11:29:08.899Z,45.07
2022-08-14T11:31:41.671Z,44.09
2022-08-14T11:34:31.930Z,44.52
2022-08-14T11:37:35.220Z,44.11
2022-08-14T11:40:19.955Z,42.66
2022-08-14T11:42:59.717Z,44.82
2022-08-14T11:45:37.079Z,45.92
2022-08-14T11:49:02.107Z,45.29
2022-08-14T11:51:24.225Z,44.92
2022-08-14T11:53:54.263Z,45.22
2022-08-14T11:56:25.664Z,45.57
2022-08-14T11:58:57.672Z,44.88
2022-08-14T12:01:33.037Z,45.38
2022-08-14T12:04:31.869Z,45.25
2022-08-14T12:07:01.227Z,46.86
2022-08-14T12:09:34.577Z,45.23
2022-08-14T12:12:03.300Z,46.90
2022-08-14T12:14:35.349Z,46.78
2022-08-14T12:17:12.238Z,47.87
2022-08-14T12:19:50.674Z,46.87
2022-08-14T12:22:29.643Z,47.91
2022-08-14T12:24:58.480Z,48.79
2022-08-14T12:27:41.597Z,48.84
2022-08-14T12:30:11.393Z,47.06
2022-08-14T12:32:43.320Z,48.18
2022-08-14T12:35:12.730Z,50.82
2022-08-14T12:37:40.937Z,47.55
2022-08-14T12:40:19.465Z,48.49
2022-08-14T12:42:53.650Z,48.94
2022-08-14T12:45:31.681Z,48.78
2022-08-14T12:48:21.832Z,48.89
2022-08-14T12:50:52.525Z,49.95
2022-08-14T12:53:22.716Z,48.68
2022-08-14T12:56:21.478Z,49.54
2022-08-14T12:58:52.499Z,53.73
2022-08-14T13:01:22.252Z,50.96
2022-08-14T13:03:52.756Z,51.83
2022-08-14T13:06:23.286Z,50.15
2022-08-14T13:08:53.649Z,48.60
2022-08-14T13:11:31.314Z,49.33
2022-08-14T13:14:01.012Z,48.61
2022-08-14T13:16:37.988Z,48.73
2022-08-14T13:19:11.270Z,48.52
2022-08-14T13:22:05.805Z,49.75
2022-08-14T13:24:33.533Z,47.78
2022-08-14T13:27:05.041Z,49.98
2022-08-14T13:29:40.898Z,50.20
2022-08-14T13:32:16.416Z,48.79
2022-08-14T13:34:52.709Z,49.38
2022-08-14T13:37:22.800Z,47.32
2022-08-14T13:39:56.566Z,47.18
2022-08-14T13:42:30.647Z,45.12
2022-08-14T13:45:01.640Z,45.99
2022-08-14T13:47:36.071Z,46.60
2022-08-14T13:50:07.840Z,44.98
2022-08-14T13:52:59.004Z,46.19
2022-08-14T13:55:34.653Z,46.44
2022-08-14T13:58:06.494Z,46.10
2022-08-14T14:00:55.673Z,45.88
2022-08-14T14:03:25.524Z,46.82
2022-08-14T14:06:00.417Z,48.42
2022-08-14T14:08:42.974Z,49.05
2022-08-14T14:11:17.427Z,47.77
2022-08-14T14:13:51.099Z,49.69
2022-08-14T14:16:26.109Z,48.96
2022-08-14T14:19:06.862Z,46.51
2022-08-14T14:21:40.760Z,46.17
2022-08-14T14:24:14.781Z,47.35
2022-08-14T14:26:47.310Z,46.69
2022-08-14T14:29:16.751Z,47.49
2022-08-14T14:31:47.804Z,47.27
2022-08-14T14:34:29.188Z,48.13
2022-08-14T14:37:03.095Z,46.64
2022-08-14T14:39:37.718Z,46.55
2022-08-14T14:42:18.196Z,47.79
2022-08-14T14:44:53.127Z,45.92
2022-08-14T14:47:25.042Z,45.78
2022-08-14T14:49:55.694Z,46.36
2022-08-14T14:52:26.875Z,46.56
2022-08-14T14:54:58.404Z,44.61
2022-08-14T14:57:35.951Z,43.57
2022-08-14T15:00:12.600Z,42.43
2022-08-14T15:02:43.045Z,40.89
2022-08-14T15:05:14.174Z,40.52
2022-08-14T15:07:54.049Z,39.07
2022-08-14T15:10:27.683Z,39.48
2022-08-14T15:13:04.509Z,39.19
2022-08-14T15:15:37.027Z,39.23
2022-08-14T15:18:36.334Z,38.71
2022-08-14T15:20:57.559Z,39.01
2022-08-14T15:23:43.476Z,38.30
2022-08-14T15:26:31.028Z,41.11
2022-08-14T15:29:04.961Z,40.57
2022-08-14T15:31:34.906Z,40.38
2022-08-14T15:34:45.968Z,41.05
2022-08-14T15:37:05.507Z,41.68
2022-08-14T15:39:38.422Z,42.07
2022-08-14T15:42:16.394Z,43.18
2022-08-14T15:44:58.061Z,43.40
2022-08-14T15:47:30.928Z,41.89
2022-08-14T15:50:00.269Z,42.83
2022-08-14T15:52:32.395Z,43.49
2022-08-14T15:55:06.913Z,43.49
2022-08-14T15:57:36.768Z,43.56
2022-08-14T16:00:43.729Z,43.43
2022-08-14T16:03:12.759Z,43.33
2022-08-14T16:05:43.944Z,43.12
2022-08-14T16:08:28.897Z,43.22
2022-08-14T16:11:00.580Z,42.52
2022-08-14T16:13:39.676Z,40.80
2022-08-14T16:16:34.769Z,40.83
2022-08-14T16:19:09.810Z,40.87
2022-08-14T16:22:00.453Z,41.21
2022-08-14T16:24:33.558Z,40.76
2022-08-14T16:27:05.205Z,40.11
2022-08-14T16:29:35.763Z,38.66
2022-08-14T16:32:33.158Z,40.43
2022-08-14T16:37:43.776Z,43.26
2022-08-14T16:40:13.692Z,42.87
2022-08-14T16:40:25.408Z,41.25
2022-08-14T16:43:04.375Z,43.42
2022-08-14T16:45:34.480Z,44.39
2022-08-14T16:48:55.534Z,44.41
2022-08-14T16:51:00.837Z,46.07
2022-08-14T16:53:41.828Z,45.97
2022-08-14T16:56:23.041Z,42.88
2022-08-14T16:59:09.615Z,42.79
2022-08-14T17:01:42.218Z,45.14
2022-08-14T17:04:15.040Z,44.21
2022-08-14T17:06:55.051Z,46.18
2022-08-14T17:09:48.741Z,45.46
2022-08-14T17:12:29.108Z,44.09
2022-08-14T17:15:10.134Z,42.27
2022-08-14T17:17:57.680Z,40.73
2022-08-14T17:20:54.635Z,41.17
2022-08-14T17:23:29.877Z,40.65
2022-08-14T17:25:58.703Z,42.51
2022-08-14T17:28:51.329Z,46.05
2022-08-14T17:31:57.934Z,49.31
2022-08-14T17:34:26.202Z,46.25
2022-08-14T17:37:01.791Z,49.07
2022-08-14T17:39:39.954Z,50.82
2022-08-14T17:42:13.284Z,51.30
2022-08-14T17:44:45.573Z,51.84
2022-08-14T17:47:20.519Z,52.01
2022-08-14T17:49:53.797Z,51.49
2022-08-14T17:52:34.516Z,54.50
2022-08-14T17:55:06.564Z,52.19
2022-08-14T17:57:41.106Z,52.55
2022-08-14T18:00:15.080Z,53.88
2022-08-14T18:02:51.281Z,54.79
2022-08-14T18:05:23.306Z,56.77
2022-08-14T18:07:59.589Z,54.25
2022-08-14T18:10:55.195Z,57.36
2022-08-14T18:13:51.400Z,56.09
2022-08-14T18:16:20.188Z,56.84
2022-08-14T18:18:56.203Z,58.21
2022-08-14T18:21:56.857Z,57.41
2022-08-14T18:24:31.649Z,59.74
2022-08-14T18:27:08.768Z,58.76
2022-08-14T18:29:43.781Z,58.30
2022-08-14T18:32:56.454Z,58.48
2022-08-14T18:35:58.695Z,59.01
2022-08-14T18:38:58.156Z,59.35
2022-08-14T18:41:36.890Z,59.05
2022-08-14T18:44:11.154Z,59.22
2022-08-14T18:47:24.424Z,59.50
2022-08-14T18:50:26.911Z,58.06
2022-08-14T18:52:57.705Z,57.69
2022-08-14T18:55:52.848Z,58.86
2022-08-14T18:58:30.379Z,60.10
2022-08-14T19:01:04.547Z,59.45
2022-08-14T19:03:52.643Z,59.04
2022-08-14T19:06:21.082Z,60.55
2022-08-14T19:08:51.354Z,60.64
2022-08-14T19:11:50.502Z,60.33
2022-08-14T19:14:48.408Z,60.98
2022-08-14T19:17:42.697Z,61.60
2022-08-14T19:20:11.995Z,62.19
2022-08-14T19:22:41.620Z,63.14
2022-08-14T19:25:13.896Z,64.17
2022-08-14T19:27:46.448Z,63.63
2022-08-14T19:30:23.365Z,65.21
2022-08-14T19:32:57.036Z,66.26
2022-08-14T19:35:55.037Z,63.55
2022-08-14T19:39:07.351Z,66.96
2022-08-14T19:41:37.943Z,64.55
2022-08-14T19:44:10.916Z,68.01
2022-08-14T19:47:00.416Z,68.32
2022-08-14T19:50:09.075Z,67.39
2022-08-14T19:52:22.444Z,67.24
2022-08-14T19:54:51.397Z,67.87
2022-08-14T19:57:23.751Z,69.27
2022-08-14T20:00:04.486Z,69.62
2022-08-14T20:02:37.613Z,70.16
2022-08-14T20:05:08.229Z,68.48
2022-08-14T20:07:59.789Z,67.45
2022-08-14T20:11:06.879Z,68.14
2022-08-14T20:13:32.762Z,69.31
2022-08-14T20:16:12.014Z,67.36
2022-08-14T20:18:54.174Z,69.95
2022-08-14T20:21:34.335Z,70.26
2022-08-14T20:24:30.453Z,71.80
2022-08-14T20:27:38.910Z,72.04
2022-08-14T20:30:33.861Z,73.23
2022-08-14T20:33:07.810Z,70.92
2022-08-14T20:35:47.621Z,68.42
2022-08-14T20:39:04.160Z,70.18
2022-08-14T20:41:13.785Z,75.64
2022-08-14T20:44:06.506Z,69.09
2022-08-14T20:46:39.381Z,77.00
2022-08-14T20:49:16.171Z,76.20
2022-08-14T20:51:58.668Z,69.15
2022-08-14T20:54:50.535Z,76.23
2022-08-14T20:57:20.180Z,70.63
2022-08-14T20:59:53.711Z,75.04
2022-08-14T21:02:38.724Z,74.89
2022-08-14T21:05:20.216Z,72.32
2022-08-14T21:07:50.266Z,73.01
2022-08-14T21:10:36.278Z,72.95
2022-08-14T21:14:09.337Z,71.30
2022-08-14T21:15:57.523Z,70.60
2022-08-14T21:18:31.649Z,71.02
2022-08-14T21:27:59.094Z,74.12
2022-08-14T21:30:51.566Z,72.50
2022-08-14T21:33:21.846Z,70.11
2022-08-14T21:35:54.964Z,70.95
2022-08-14T21:38:29.519Z,70.73
2022-08-14T21:41:41.364Z,69.43
2022-08-14T21:44:18.287Z,70.63
2022-08-14T21:46:53.514Z,70.84
2022-08-14T21:49:24.250Z,69.66
2022-08-14T21:52:48.880Z,68.78
2022-08-14T21:54:49.537Z,68.23
2022-08-14T21:58:45.937Z,66.66
2022-08-14T22:00:35.346Z,68.96
2022-08-14T22:03:09.279Z,68.68
2022-08-14T22:05:38.945Z,67.26
2022-08-14T22:08:14.143Z,67.11
2022-08-14T22:11:11.935Z,69.01
2022-08-14T22:13:46.419Z,68.49
2022-08-14T22:17:13.060Z,69.13
2022-08-14T22:19:54.954Z,69.01
2022-08-14T22:23:26.258Z,68.79
2022-08-14T22:25:57.241Z,69.49
2022-08-14T22:28:32.644Z,69.40
2022-08-14T22:31:10.386Z,68.51
2022-08-14T22:33:49.955Z,69.49
2022-08-14T22:36:45.310Z,68.36
2022-08-14T22:39:17.841Z,68.81
2022-08-14T22:41:55.842Z,69.84
2022-08-14T22:44:30.231Z,70.33
2022-08-14T22:47:00.299Z,69.33
2022-08-14T22:50:30.670Z,70.45
2022-08-14T22:52:32.840Z,70.14
2022-08-14T22:55:14.288Z,71.41
2022-08-14T22:57:45.303Z,69.65
2022-08-14T23:00:30.044Z,70.68
2022-08-14T23:03:01.688Z,70.76
2022-08-14T23:05:38.996Z,71.04
2022-08-14T23:08:59.890Z,70.68
2022-08-14T23:11:01.122Z,72.96
2022-08-14T23:13:33.175Z,71.00
2022-08-14T23:16:01.869Z,70.45
2022-08-14T23:18:41.280Z,70.69
2022-08-14T23:21:11.224Z,71.06
2022-08-14T23:23:41.479Z,71.01
2022-08-14T23:26:48.589Z,71.74
2022-08-14T23:29:01.338Z,74.26
2022-08-14T23:31:39.619Z,72.02
2022-08-14T23:34:20.973Z,72.13
2022-08-14T23:36:53.232Z,74.11
2022-08-14T23:39:30.263Z,75.19
2022-08-14T23:42:02.174Z,74.02
2022-08-14T23:44:34.812Z,74.10
2022-08-14T23:47:10.885Z,73.71
2022-08-14T23:49:56.854Z,73.57
2022-08-14T23:53:06.402Z,73.58
2022-08-14T23:55:18.927Z,73.51
2022-08-14T23:57:57.414Z,73.15
